Time;durP1;ratioP1;P1;durP2;ratioP2;P2;SDS_P1;SDS_P2;PMS_P1;PMS_P2;Temp;Humidity;BMP_temperature;BMP_pressure;BME280_temperature;BME280_humidity;BME280_pressure;Samples;Min_cycle;Max_cycle;Signal;HPM_P1;HPM_P2
2021/12/02 00:02:19;;;;;;;10.27;2.28;;;;;;;8.56;68.13;99845.25;5065362;28;20146;-71
2021/12/02 00:04:48;;;;;;;6.28;1.88;;;;;;;8.50;68.58;99846.19;5106033;28;20040;-71
2021/12/02 00:07:16;;;;;;;5.90;1.90;;;;;;;8.54;68.37;99855.38;5105861;28;20063;-71
2021/12/02 00:09:44;;;;;;;5.38;1.58;;;;;;;8.51;67.66;99855.84;5099011;28;20075;-71
2021/12/02 00:12:12;;;;;;;7.30;1.88;;;;;;;8.50;67.94;99857.72;5090103;28;20060;-70
2021/12/02 00:14:44;;;;;;;12.45;2.90;;;;;;;8.47;68.37;99863.53;5105793;28;20051;-71
2021/12/02 00:17:17;;;;;;;10.45;2.80;;;;;;;8.43;68.01;99860.50;5105867;28;20059;-71
2021/12/02 00:22:54;;;;;;;7.38;1.85;;;;;;;8.44;67.71;99877.38;5062253;28;20061;-71
2021/12/02 00:25:24;;;;;;;12.23;3.35;;;;;;;8.42;67.09;99880.28;5063539;28;20049;-71
2021/12/02 00:27:54;;;;;;;8.55;2.58;;;;;;;8.41;67.67;99880.53;5062208;28;20128;-71
2021/12/02 00:30:25;;;;;;;7.93;2.15;;;;;;;8.41;67.23;99889.38;5062784;28;20076;-70
2021/12/02 00:32:56;;;;;;;8.80;1.80;;;;;;;8.39;67.31;99878.06;5062323;28;20077;-71
2021/12/02 00:35:25;;;;;;;5.90;1.65;;;;;;;8.38;67.34;99878.31;5063097;28;20049;-71
2021/12/02 00:37:54;;;;;;;6.05;1.60;;;;;;;8.38;67.25;99886.34;5059301;28;20054;-71
2021/12/02 00:40:22;;;;;;;4.95;1.60;;;;;;;8.36;67.56;99883.91;5054508;28;20068;-71
2021/12/02 00:42:52;;;;;;;8.80;2.23;;;;;;;8.34;66.72;99887.84;5060496;28;20047;-70
2021/12/02 00:45:20;;;;;;;8.40;1.58;;;;;;;8.34;67.21;99885.16;5054967;28;20293;-71
2021/12/02 00:47:49;;;;;;;4.65;1.50;;;;;;;8.34;68.32;99883.31;5055374;28;20076;-71
2021/12/02 00:50:18;;;;;;;4.32;1.33;;;;;;;8.32;67.66;99880.00;5062909;28;20114;-70
2021/12/02 00:52:50;;;;;;;5.45;1.40;;;;;;;8.34;68.30;99869.09;5060366;28;20104;-71
2021/12/02 00:55:19;;;;;;;10.02;1.67;;;;;;;8.33;67.81;99870.16;5057293;28;20144;-70
2021/12/02 00:57:48;;;;;;;4.95;1.80;;;;;;;8.33;67.98;99870.16;5061523;28;20087;-71
2021/12/02 01:00:16;;;;;;;6.20;1.90;;;;;;;8.32;67.78;99861.28;5100287;28;20044;-71
2021/12/02 01:02:45;;;;;;;4.40;1.88;;;;;;;8.31;68.34;99858.84;5104281;28;20047;-71
2021/12/02 01:05:15;;;;;;;4.55;1.48;;;;;;;8.34;68.76;99864.56;5102195;28;20040;-71
2021/12/02 01:07:43;;;;;;;9.75;2.08;;;;;;;8.34;68.53;99866.44;5096854;28;20076;-71
2021/12/02 01:10:12;;;;;;;5.63;2.50;;;;;;;8.33;68.51;99873.66;5103435;28;20113;-71
2021/12/02 01:12:40;;;;;;;4.47;1.35;;;;;;;8.33;68.57;99875.50;5104109;28;20116;-71
2021/12/02 01:15:09;;;;;;;4.93;1.40;;;;;;;8.35;68.01;99886.81;5097953;28;20119;-71
2021/12/02 01:17:37;;;;;;;6.53;1.60;;;;;;;8.34;68.96;99875.28;5101907;28;20426;-71
2021/12/02 01:20:07;;;;;;;6.28;1.60;;;;;;;8.34;68.72;99867.25;5095279;28;20389;-71
2021/12/02 01:22:39;;;;;;;6.45;1.50;;;;;;;8.34;68.79;99872.59;5104556;28;20048;-71
2021/12/02 01:25:08;;;;;;;7.03;1.95;;;;;;;8.33;68.79;99867.47;5105063;28;20071;-71
2021/12/02 01:27:37;;;;;;;8.05;2.35;;;;;;;8.33;68.76;99876.31;5100370;28;20400;-71
2021/12/02 01:30:07;;;;;;;6.65;1.98;;;;;;;8.33;68.74;99876.31;5096454;28;20105;-71
2021/12/02 01:32:38;;;;;;;5.10;1.75;;;;;;;8.34;69.32;99877.97;5104835;28;20075;-71
2021/12/02 01:35:08;;;;;;;4.32;1.48;;;;;;;8.31;68.51;99882.91;5104831;28;20104;-71
2021/12/02 01:37:40;;;;;;;5.32;1.45;;;;;;;8.34;68.73;99894.03;5103804;28;20044;-71
2021/12/02 01:40:09;;;;;;;5.15;1.10;;;;;;;8.33;68.80;99899.59;5103952;28;20087;-71
2021/12/02 01:42:41;;;;;;;6.28;2.30;;;;;;;8.33;68.89;99894.25;5100001;28;20105;-71
2021/12/02 01:45:14;;;;;;;3.75;1.35;;;;;;;8.31;69.12;99885.59;5100216;28;20036;-71
2021/12/02 01:47:51;;;;;;;8.38;1.60;;;;;;;8.29;68.80;99890.38;5102379;28;20055;-71
2021/12/02 01:50:22;;;;;;;4.20;1.42;;;;;;;8.29;68.83;99893.03;5102446;28;20048;-71
2021/12/02 01:52:56;;;;;;;5.13;1.23;;;;;;;8.27;68.17;99885.25;5103727;28;20044;-71
2021/12/02 01:55:25;;;;;;;7.68;1.50;;;;;;;8.26;68.55;99886.28;5104695;28;20071;-71
2021/12/02 01:57:59;;;;;;;6.53;1.50;;;;;;;8.26;69.00;99888.16;5102807;28;20051;-71
2021/12/02 02:00:32;;;;;;;6.70;1.70;;;;;;;8.26;68.86;99888.16;5101400;28;20366;-70
2021/12/02 02:03:02;;;;;;;7.22;2.22;;;;;;;8.26;68.45;99888.16;5103713;28;20087;-71
2021/12/02 02:05:31;;;;;;;5.05;1.15;;;;;;;8.24;68.76;99888.38;5103946;28;20071;-71
2021/12/02 02:08:03;;;;;;;6.38;1.30;;;;;;;8.24;68.84;99883.03;5093387;28;20071;-71
2021/12/02 02:10:34;;;;;;;4.40;1.75;;;;;;;8.24;68.82;99887.56;5100549;28;20131;-70
2021/12/02 02:13:06;;;;;;;8.85;1.33;;;;;;;8.13;68.46;99879.28;5102578;28;20071;-71
2021/12/02 02:15:35;;;;;;;4.43;1.70;;;;;;;8.21;68.87;99891.53;5103393;28;20051;-71
2021/12/02 02:18:08;;;;;;;3.28;1.20;;;;;;;8.18;68.57;99894.66;5103599;28;20223;-71
2021/12/02 02:20:42;;;;;;;3.00;1.00;;;;;;;8.21;68.03;99893.38;5091630;28;20083;-70
2021/12/02 02:23:12;;;;;;;3.63;1.10;;;;;;;8.21;68.06;99898.72;5103524;28;20079;-71
2021/12/02 02:25:42;;;;;;;3.10;1.20;;;;;;;8.18;68.57;99891.97;5092675;28;20040;-71
2021/12/02 02:28:10;;;;;;;2.92;1.10;;;;;;;8.18;68.33;99886.63;5101995;28;20055;-71
2021/12/02 02:30:39;;;;;;;3.63;1.48;;;;;;;8.15;68.71;99887.91;5099552;28;20473;-71
2021/12/02 02:33:07;;;;;;;3.40;1.05;;;;;;;8.15;68.69;99879.88;5103172;28;20121;-70
2021/12/02 02:35:35;;;;;;;3.08;1.20;;;;;;;8.15;68.56;99887.91;5103774;28;20082;-70
2021/12/02 02:38:05;;;;;;;3.03;1.27;;;;;;;8.14;68.56;99883.59;5101224;28;20052;-70
2021/12/02 02:40:35;;;;;;;3.58;0.82;;;;;;;8.13;68.41;99878.47;5098536;28;20076;-69
2021/12/02 02:43:07;;;;;;;3.55;1.02;;;;;;;8.12;68.61;99885.69;5100561;28;20144;-71
2021/12/02 02:45:36;;;;;;;6.30;1.20;;;;;;;8.12;68.14;99885.69;5100445;28;20051;-71
2021/12/02 02:48:05;;;;;;;3.10;0.95;;;;;;;8.11;68.01;99892.06;5104597;28;20040;-71
2021/12/02 02:50:34;;;;;;;2.70;1.10;;;;;;;8.10;68.20;99882.41;5097942;28;20086;-71
2021/12/02 02:53:08;;;;;;;2.65;0.90;;;;;;;8.09;68.87;99888.81;5098544;28;20074;-71
2021/12/02 02:55:36;;;;;;;4.97;1.38;;;;;;;8.09;68.21;99893.34;5107458;28;20040;-71
2021/12/02 02:58:13;;;;;;;1.92;0.98;;;;;;;8.09;68.36;99896.03;5099353;28;20134;-71
2021/12/02 03:00:48;;;;;;;3.97;1.00;;;;;;;8.08;67.84;99894.41;5091703;28;20049;-71
2021/12/02 03:03:30;;;;;;;4.50;1.30;;;;;;;8.06;68.29;99891.94;5103968;28;20579;-71
2021/12/02 03:06:12;;;;;;;2.90;1.10;;;;;;;8.06;67.64;99896.47;5106903;28;20063;-71
2021/12/02 03:08:49;;;;;;;2.72;1.20;;;;;;;8.03;67.31;99888.91;5107043;28;20087;-70
2021/12/02 03:11:19;;;;;;;4.85;1.00;;;;;;;8.04;67.93;99887.88;5098605;28;20087;-71
2021/12/02 03:13:51;;;;;;;4.63;1.45;;;;;;;8.04;68.25;99890.53;5106624;28;20056;-71
2021/12/02 03:16:43;;;;;;;3.42;0.90;;;;;;;8.02;67.70;99887.28;5103755;28;20059;-71
2021/12/02 03:19:13;;;;;;;5.15;1.15;;;;;;;7.95;67.92;99878.53;5099514;28;20079;-71
2021/12/02 03:21:41;;;;;;;4.07;1.00;;;;;;;7.99;67.58;99891.22;5107080;28;20040;-71
2021/12/02 03:24:11;;;;;;;2.67;0.93;;;;;;;7.99;67.44;99895.75;5093403;28;20052;-71
2021/12/02 03:26:38;;;;;;;5.68;0.90;;;;;;;7.98;66.95;99894.13;5106480;28;20075;-70
2021/12/02 03:29:06;;;;;;;3.70;1.13;;;;;;;7.97;67.28;99897.84;5104434;28;20060;-70
2021/12/02 03:31:35;;;;;;;4.97;1.30;;;;;;;7.96;67.70;99898.91;5104303;28;20054;-71
2021/12/02 03:34:04;;;;;;;3.03;1.30;;;;;;;7.95;67.42;99892.72;5101504;28;20139;-71
2021/12/02 03:36:32;;;;;;;4.28;1.40;;;;;;;7.90;67.42;99886.44;5102753;28;20048;-71
2021/12/02 03:38:59;;;;;;;3.63;1.52;;;;;;;7.93;67.63;99900.16;5106373;28;20377;-71
2021/12/02 03:41:28;;;;;;;7.35;1.33;;;;;;;7.92;67.96;99901.22;5101839;28;20083;-71
2021/12/02 03:43:56;;;;;;;4.82;1.10;;;;;;;7.90;67.20;99905.97;5106305;28;20106;-71
2021/12/02 03:46:25;;;;;;;2.63;0.95;;;;;;;7.90;66.61;99924.69;5106264;28;20044;-71
2021/12/02 03:48:55;;;;;;;5.47;1.52;;;;;;;7.84;66.66;99910.38;5101159;28;20052;-71
2021/12/02 03:51:24;;;;;;;8.68;1.20;;;;;;;7.78;66.91;99910.47;5099046;28;20071;-71
2021/12/02 03:53:52;;;;;;;4.60;1.25;;;;;;;7.81;66.47;99918.84;5106253;28;20044;-71
2021/12/02 03:56:21;;;;;;;4.65;0.98;;;;;;;7.80;66.60;99922.56;5103754;28;20078;-71
2021/12/02 03:58:51;;;;;;;7.53;1.45;;;;;;;7.80;67.13;99925.25;5101304;28;20076;-71
2021/12/02 04:01:19;;;;;;;5.47;1.30;;;;;;;7.79;66.63;99922.78;5105705;28;20056;-71
2021/12/02 04:03:48;;;;;;;3.92;1.35;;;;;;;7.76;66.72;99929.41;5106388;28;20044;-71
2021/12/02 04:06:16;;;;;;;2.45;1.00;;;;;;;7.76;67.16;99924.06;5105754;28;20051;-71
2021/12/02 04:08:46;;;;;;;5.97;0.95;;;;;;;7.76;66.83;99912.53;5103473;28;20051;-71
2021/12/02 04:11:29;;;;;;;3.30;1.08;;;;;;;7.76;67.31;99905.34;5098300;28;20122;-71
2021/12/02 04:14:07;;;;;;;7.00;2.50;;;;;;;7.75;66.24;99902.88;5098830;28;20474;-71
2021/12/02 04:16:37;;;;;;;5.53;1.15;;;;;;;7.72;66.68;99903.34;5097395;28;20056;-71
2021/12/02 04:19:06;;;;;;;5.65;1.10;;;;;;;7.74;66.48;99898.59;5106487;28;20086;-71
2021/12/02 04:21:39;;;;;;;2.67;1.25;;;;;;;7.71;66.54;99902.53;5105435;28;20044;-71
2021/12/02 04:24:06;;;;;;;6.50;1.50;;;;;;;7.71;66.58;99899.84;5105798;28;20116;-71
2021/12/02 04:26:34;;;;;;;6.40;1.30;;;;;;;7.72;67.04;99896.13;5105160;28;20079;-71
2021/12/02 04:29:04;;;;;;;6.50;1.40;;;;;;;7.73;67.12;99891.59;5098304;28;20055;-71
2021/12/02 04:31:31;;;;;;;4.65;1.48;;;;;;;7.71;66.58;99899.84;5094894;28;20044;-71
2021/12/02 04:33:59;;;;;;;6.28;2.15;;;;;;;7.72;66.67;99906.00;5099469;28;20164;-71
2021/12/02 04:36:27;;;;;;;3.72;0.95;;;;;;;7.72;66.65;99904.16;5102390;28;20047;-71
2021/12/02 04:38:54;;;;;;;5.10;1.58;;;;;;;7.70;67.29;99900.06;5104574;28;20048;-71
2021/12/02 04:41:22;;;;;;;4.00;1.30;;;;;;;7.71;67.33;99904.38;5107357;28;20082;-71
2021/12/02 04:43:50;;;;;;;3.40;1.10;;;;;;;7.70;67.47;99903.56;5098803;28;20052;-71
2021/12/02 04:46:19;;;;;;;5.97;0.93;;;;;;;7.70;66.94;99916.94;5098531;28;20048;-71
2021/12/02 04:48:47;;;;;;;3.67;1.27;;;;;;;7.59;67.13;99903.50;5096857;28;20509;-71
2021/12/02 04:51:14;;;;;;;6.00;1.10;;;;;;;7.70;67.43;99927.63;5098685;28;20048;-71
2021/12/02 04:53:42;;;;;;;4.63;1.10;;;;;;;7.68;66.98;99929.72;5097514;28;20079;-71
2021/12/02 04:56:10;;;;;;;3.25;0.90;;;;;;;7.69;66.95;99925.19;5092218;28;20053;-71
2021/12/02 04:58:38;;;;;;;4.50;1.10;;;;;;;7.68;67.23;99919.03;5094001;28;20067;-71
2021/12/02 05:01:05;;;;;;;5.97;1.05;;;;;;;7.69;67.51;99919.84;5101229;28;20473;-71
2021/12/02 05:03:35;;;;;;;5.03;1.30;;;;;;;7.68;66.77;99924.38;5091131;28;20117;-71
2021/12/02 05:06:02;;;;;;;6.05;1.60;;;;;;;7.67;67.01;99928.09;5100544;28;20097;-71
2021/12/02 05:08:30;;;;;;;3.95;1.65;;;;;;;7.63;66.75;99916.22;5104188;28;20095;-70
2021/12/02 05:10:58;;;;;;;3.75;0.93;;;;;;;7.66;66.52;99923.78;5102659;28;20075;-71
2021/12/02 05:13:25;;;;;;;5.07;1.20;;;;;;;7.64;66.50;99919.69;5103927;28;20052;-70
2021/12/02 05:15:53;;;;;;;3.40;1.27;;;;;;;7.63;66.56;99934.13;5091407;28;20051;-71
2021/12/02 05:18:21;;;;;;;4.53;1.10;;;;;;;7.61;65.80;99937.00;5104716;28;20048;-71
2021/12/02 05:20:50;;;;;;;9.15;1.15;;;;;;;7.61;66.86;99946.88;5094970;28;20053;-71
2021/12/02 05:23:18;;;;;;;5.63;1.10;;;;;;;7.60;66.16;99953.28;5100789;28;20044;-71
2021/12/02 05:25:46;;;;;;;7.35;1.55;;;;;;;7.58;66.32;99950.81;5104181;28;20048;-71
2021/12/02 05:28:17;;;;;;;3.53;1.15;;;;;;;7.55;66.37;99947.78;5102487;28;20482;-71
2021/12/02 05:30:45;;;;;;;7.28;1.40;;;;;;;7.54;66.14;99951.50;5101126;28;20044;-71
2021/12/02 05:33:14;;;;;;;3.60;0.93;;;;;;;7.51;65.89;99955.44;5102631;28;20127;-71
2021/12/02 05:35:42;;;;;;;3.25;0.98;;;;;;;7.50;66.71;99956.47;5105101;28;20111;-71
2021/12/02 05:38:12;;;;;;;2.60;0.80;;;;;;;7.48;66.37;99961.22;5100248;28;20055;-71
2021/12/02 05:40:40;;;;;;;4.63;1.25;;;;;;;7.44;65.94;99965.38;5099826;28;20043;-71
2021/12/02 05:43:08;;;;;;;7.53;1.58;;;;;;;7.43;66.44;99966.44;5092651;28;20059;-71
2021/12/02 05:45:36;;;;;;;4.15;0.98;;;;;;;7.42;66.03;99959.44;5087600;28;20421;-71
2021/12/02 05:48:04;;;;;;;4.28;1.40;;;;;;;7.36;65.70;99955.81;5099942;28;20044;-71
2021/12/02 05:50:32;;;;;;;6.00;1.00;;;;;;;7.30;65.54;99958.56;5098810;28;20157;-70
2021/12/02 05:53:00;;;;;;;5.80;1.20;;;;;;;7.29;65.85;99952.38;5101771;28;20512;-71
2021/12/02 05:55:29;;;;;;;5.32;1.05;;;;;;;7.34;65.69;99957.06;5100372;28;20044;-71
2021/12/02 05:57:56;;;;;;;2.55;0.93;;;;;;;7.32;66.22;99965.31;5102403;28;20043;-69
2021/12/02 06:00:24;;;;;;;5.07;0.85;;;;;;;7.33;65.31;99976.81;5085826;28;20052;-68
2021/12/02 06:02:52;;;;;;;3.55;1.38;;;;;;;7.31;65.07;99986.91;5092701;28;20162;-71
2021/12/02 06:05:20;;;;;;;4.22;1.17;;;;;;;7.24;65.13;99995.00;5092682;28;20067;-71
2021/12/02 06:07:50;;;;;;;2.78;0.70;;;;;;;7.19;64.73;99987.66;5102843;28;20072;-71
2021/12/02 06:10:18;;;;;;;4.20;0.88;;;;;;;7.27;65.02;99983.06;5101844;28;20044;-72
2021/12/02 06:12:47;;;;;;;3.53;1.45;;;;;;;7.36;64.24;99979.88;5098710;28;20048;-72
2021/12/02 06:15:16;;;;;;;2.05;0.55;;;;;;;7.50;64.62;99976.00;5103495;28;20374;-69
2021/12/02 06:17:43;;;;;;;2.15;0.63;;;;;;;7.70;63.88;99983.81;5101226;28;20051;-71
2021/12/02 06:20:14;;;;;;;1.98;0.60;;;;;;;7.89;63.91;99975.75;5103442;28;20094;-71
2021/12/02 06:22:42;;;;;;;3.92;0.77;;;;;;;8.09;63.29;99976.31;5103495;28;20413;-72
2021/12/02 06:28:04;;;;;;;2.30;0.80;;;;;;;8.42;61.85;99984.72;5089470;28;20044;-71
2021/12/02 06:30:32;;;;;;;5.22;0.85;;;;;;;8.58;61.58;99990.47;5091770;28;20048;-69
2021/12/02 06:33:00;;;;;;;7.68;0.95;;;;;;;8.68;61.88;99983.47;5088780;28;20048;-71
2021/12/02 06:35:28;;;;;;;1.38;0.88;;;;;;;8.80;62.19;99994.19;4386308;28;10000823;-72
2021/12/02 06:37:56;;;;;;;3.90;0.90;;;;;;;8.89;61.13;99994.66;5082627;28;20079;-72
2021/12/02 06:40:24;;;;;;;1.75;0.70;;;;;;;8.79;61.53;99981.84;5092628;28;20473;-72
2021/12/02 06:42:52;;;;;;;2.03;0.77;;;;;;;8.70;62.19;99986.72;5099574;28;20082;-72
2021/12/02 06:45:21;;;;;;;2.55;0.68;;;;;;;8.53;62.23;99976.94;5100328;28;20064;-71
2021/12/02 06:47:51;;;;;;;2.95;1.08;;;;;;;8.37;63.35;99986.44;5099264;28;20044;-71
2021/12/02 06:50:20;;;;;;;2.10;1.13;;;;;;;8.25;64.05;99977.53;5100267;28;20334;-71
2021/12/02 06:52:50;;;;;;;4.82;1.95;;;;;;;8.17;63.93;99981.34;5099423;28;20367;-71
2021/12/02 06:55:18;;;;;;;1.98;0.85;;;;;;;8.09;64.21;99982.47;5099819;28;20044;-71
2021/12/02 06:57:47;;;;;;;2.35;0.95;;;;;;;8.03;64.27;99980.69;5093420;28;20459;-70
2021/12/02 07:00:16;;;;;;;3.13;0.85;;;;;;;7.93;64.63;99980.44;5099025;28;20052;-69
2021/12/02 07:02:46;;;;;;;1.73;1.05;;;;;;;7.90;64.78;99988.09;5096820;28;20061;-71
2021/12/02 07:05:16;;;;;;;4.25;0.77;;;;;;;7.84;65.37;100000.50;5096533;28;20048;-70
2021/12/02 07:07:45;;;;;;;2.30;1.00;;;;;;;7.81;64.58;100012.47;5094379;28;20463;-70
2021/12/02 07:10:16;;;;;;;3.40;0.95;;;;;;;7.71;64.64;100022.88;5098274;28;20048;-68
2021/12/02 07:12:47;;;;;;;3.35;1.00;;;;;;;7.70;64.99;100034.63;5097108;28;20107;-71
2021/12/02 07:15:17;;;;;;;2.95;1.70;;;;;;;7.60;64.98;100042.34;5099986;28;20040;-59
2021/12/02 07:17:50;;;;;;;4.30;1.20;;;;;;;7.57;65.64;100044.63;5099541;28;20055;-60
2021/12/02 07:20:18;;;;;;;2.85;1.05;;;;;;;7.55;65.73;100052.06;5103237;28;20071;-60
2021/12/02 07:22:46;;;;;;;4.40;1.58;;;;;;;7.52;65.15;100047.97;5099914;28;20465;-60
2021/12/02 07:25:13;;;;;;;6.25;1.33;;;;;;;7.49;65.46;100062.59;5099899;28;20048;-60
2021/12/02 07:27:47;;;;;;;3.92;1.73;;;;;;;7.46;66.23;100065.72;5088097;28;20550;-60
2021/12/02 07:30:15;;;;;;;1.63;0.90;;;;;;;7.45;66.44;100064.06;5101166;28;20048;-60
2021/12/02 07:32:47;;;;;;;6.07;1.20;;;;;;;7.44;66.60;100065.13;5093126;28;20053;-60
2021/12/02 07:35:16;;;;;;;4.82;1.10;;;;;;;7.42;66.71;100064.53;5104088;28;20051;-59
2021/12/02 07:37:47;;;;;;;7.43;1.38;;;;;;;7.41;66.45;100067.41;5104195;28;20077;-61
2021/12/02 07:40:17;;;;;;;3.33;1.00;;;;;;;7.39;66.22;100069.50;5102796;28;20052;-60
2021/12/02 07:42:45;;;;;;;1.80;0.77;;;;;;;7.34;65.44;100074.69;5093712;28;20048;-60
2021/12/02 07:45:15;;;;;;;4.80;1.55;;;;;;;7.30;66.02;100079.63;5086025;28;20177;-60
2021/12/02 07:47:43;;;;;;;5.18;0.93;;;;;;;7.31;66.60;100072.44;5100553;28;20072;-60
2021/12/02 07:50:15;;;;;;;2.92;1.33;;;;;;;7.30;66.23;100076.97;5100277;28;21169;-60
2021/12/02 07:52:46;;;;;;;5.00;1.58;;;;;;;7.28;66.98;100075.56;5101560;28;20076;-60
2021/12/02 07:55:15;;;;;;;2.83;1.20;;;;;;;7.30;66.59;100078.81;5097156;28;20093;-60
2021/12/02 07:57:45;;;;;;;3.30;1.00;;;;;;;7.29;66.71;100083.34;5098984;28;20354;-61
2021/12/02 08:00:15;;;;;;;2.53;1.00;;;;;;;7.29;66.84;100078.00;5098450;28;20055;-63
2021/12/02 08:02:43;;;;;;;3.70;1.40;;;;;;;7.27;66.59;100077.41;5093932;28;20056;-60
2021/12/02 08:05:13;;;;;;;4.35;0.98;;;;;;;7.26;66.85;100085.63;5099448;28;20097;-60
2021/12/02 08:07:44;;;;;;;2.75;1.20;;;;;;;7.26;66.79;100091.00;5095073;28;20072;-60
2021/12/02 08:10:14;;;;;;;3.53;1.27;;;;;;;7.26;66.53;100091.81;5097002;28;20056;-60
2021/12/02 08:12:47;;;;;;;4.22;1.23;;;;;;;7.26;66.58;100091.00;5098166;28;20125;-60
2021/12/02 08:15:16;;;;;;;4.35;1.00;;;;;;;7.23;66.18;100086.06;5098209;28;20105;-60
2021/12/02 08:17:44;;;;;;;3.50;1.63;;;;;;;7.24;65.92;100098.41;5100873;28;20039;-61
2021/12/02 08:20:13;;;;;;;3.33;1.40;;;;;;;7.23;66.00;100100.25;5101185;28;20044;-60
2021/12/02 08:22:41;;;;;;;4.70;1.27;;;;;;;7.22;66.32;100109.31;5099176;28;20163;-60
2021/12/02 08:25:12;;;;;;;3.10;1.20;;;;;;;7.19;66.03;100109.75;5092850;28;20053;-60
2021/12/02 08:27:41;;;;;;;5.00;1.60;;;;;;;7.19;66.24;100110.56;5095730;28;20079;-60
2021/12/02 08:30:11;;;;;;;5.20;1.42;;;;;;;7.19;65.92;100112.41;5090706;28;20044;-61
2021/12/02 08:32:41;;;;;;;3.70;1.00;;;;;;;7.17;65.94;100117.97;5095647;28;20490;-60
2021/12/02 08:35:10;;;;;;;4.82;1.42;;;;;;;7.18;65.76;100114.28;5098000;28;20048;-61
2021/12/02 08:37:43;;;;;;;5.07;1.10;;;;;;;7.22;65.67;100111.16;5093763;28;20043;-61
2021/12/02 08:40:13;;;;;;;5.03;1.48;;;;;;;7.34;65.79;100112.91;4743058;28;9999992;-60
2021/12/02 08:42:41;;;;;;;6.28;1.23;;;;;;;7.45;65.12;100109.53;5095394;28;20417;-60
2021/12/02 08:45:10;;;;;;;3.65;1.75;;;;;;;7.62;64.61;100117.00;5095263;28;20044;-60
2021/12/02 08:47:43;;;;;;;7.55;2.00;;;;;;;7.78;63.90;100111.06;5099667;28;20056;-60
2021/12/02 08:50:12;;;;;;;3.95;1.17;;;;;;;7.96;63.63;100115.63;5098277;28;20117;-60
2021/12/02 08:52:42;;;;;;;4.25;1.27;;;;;;;8.11;63.18;100116.88;5096067;28;20047;-60
2021/12/02 08:55:10;;;;;;;3.22;1.00;;;;;;;8.26;62.69;100124.53;5096750;28;20090;-60
2021/12/02 08:57:45;;;;;;;2.35;1.10;;;;;;;8.36;62.29;100132.06;5096295;28;20086;-60
2021/12/02 09:00:15;;;;;;;2.63;0.90;;;;;;;8.50;61.53;100141.56;5097928;28;20048;-60
2021/12/02 09:02:43;;;;;;;4.63;1.30;;;;;;;8.59;60.97;100144.75;5094909;28;20409;-60
2021/12/02 09:05:11;;;;;;;4.88;1.00;;;;;;;8.69;60.30;100153.03;5093274;28;20044;-60
2021/12/02 09:07:39;;;;;;;2.42;1.05;;;;;;;8.75;60.56;100158.31;5094536;28;20056;-60
2021/12/02 09:10:10;;;;;;;4.35;1.17;;;;;;;8.85;60.50;100162.31;5093406;28;20087;-61
2021/12/02 09:12:37;;;;;;;3.30;1.08;;;;;;;8.87;60.23;100158.34;5094268;28;20087;-59
2021/12/02 09:15:08;;;;;;;7.03;1.33;;;;;;;8.98;60.69;100170.16;5094035;28;20055;-60
2021/12/02 09:17:36;;;;;;;7.63;1.38;;;;;;;8.87;59.97;100171.75;5099270;28;20040;-60
2021/12/02 09:20:05;;;;;;;4.85;2.03;;;;;;;8.72;60.99;100179.38;5099506;28;20040;-61
2021/12/02 09:22:33;;;;;;;5.28;1.30;;;;;;;8.54;61.21;100171.38;5100581;28;20048;-60
2021/12/02 09:25:03;;;;;;;2.85;1.10;;;;;;;8.33;61.09;100180.69;5100841;28;20130;-60
2021/12/02 09:27:33;;;;;;;4.45;2.20;;;;;;;8.19;62.66;100192.56;5098700;28;20041;-60
2021/12/02 09:30:02;;;;;;;2.53;1.20;;;;;;;8.06;62.47;100188.16;5097608;28;20694;-60
2021/12/02 09:32:30;;;;;;;4.45;1.88;;;;;;;7.99;63.04;100196.25;5097868;28;20081;-60
2021/12/02 09:34:58;;;;;;;5.43;1.33;;;;;;;7.83;63.19;100188.78;5097719;28;20123;-60
2021/12/02 09:37:25;;;;;;;6.85;1.60;;;;;;;7.80;63.39;100194.59;5097936;28;20074;-60
2021/12/02 09:39:53;;;;;;;3.42;1.20;;;;;;;7.72;63.31;100189.50;5099987;28;20045;-60
2021/12/02 09:42:21;;;;;;;2.15;1.10;;;;;;;7.65;63.30;100186.06;5099768;28;20128;-60
2021/12/02 09:44:59;;;;;;;3.70;1.00;;;;;;;7.61;64.01;100195.56;5099501;28;20062;-60
2021/12/02 09:47:29;;;;;;;6.88;1.15;;;;;;;7.57;63.63;100197.88;5097857;28;20092;-59
2021/12/02 09:49:59;;;;;;;3.70;1.25;;;;;;;7.55;64.64;100201.78;5099853;28;20538;-60
2021/12/02 09:52:33;;;;;;;8.38;1.67;;;;;;;7.52;63.89;100200.38;5099652;28;20052;-60
2021/12/02 09:55:04;;;;;;;4.22;1.13;;;;;;;7.47;64.11;100200.22;5095849;28;20812;-61
2021/12/02 09:57:37;;;;;;;5.32;1.38;;;;;;;7.44;64.68;100198.78;5093246;28;20084;-60
2021/12/02 10:00:15;;;;;;;3.10;1.05;;;;;;;7.44;64.75;100209.47;5099930;28;20091;-60
2021/12/02 10:02:51;;;;;;;3.22;1.08;;;;;;;7.42;64.46;100210.72;5095192;28;20057;-59
2021/12/02 10:05:30;;;;;;;8.68;1.25;;;;;;;7.39;64.80;100201.28;5100649;28;20043;-60
2021/12/02 10:08:02;;;;;;;6.72;1.55;;;;;;;7.37;64.75;100202.53;5096600;28;20059;-60
2021/12/02 10:10:33;;;;;;;4.38;1.30;;;;;;;7.37;64.98;100197.19;5098117;28;20072;-60
2021/12/02 10:13:18;;;;;;;4.03;1.13;;;;;;;7.33;64.75;100196.00;5098129;28;20489;-60
2021/12/02 10:16:03;;;;;;;2.78;1.13;;;;;;;7.43;65.10;100201.66;5098149;28;20050;-60
2021/12/02 10:18:37;;;;;;;3.85;1.40;;;;;;;7.59;64.46;100208.34;5095035;28;20833;-60
2021/12/02 10:21:20;;;;;;;5.82;1.17;;;;;;;7.75;63.86;100210.47;5094465;28;20052;-60
2021/12/02 10:23:48;;;;;;;5.18;1.45;;;;;;;7.90;63.12;100205.59;5095061;28;20044;-60
2021/12/02 10:26:18;;;;;;;3.95;1.20;;;;;;;8.06;62.76;100217.59;5094425;28;20063;-61
2021/12/02 10:28:47;;;;;;;4.07;1.23;;;;;;;8.20;62.91;100218.28;5095761;28;20555;-60
2021/12/02 10:31:24;;;;;;;3.20;1.05;;;;;;;8.18;62.69;100221.19;5096118;28;20048;-60
2021/12/02 10:33:57;;;;;;;3.88;1.33;;;;;;;8.16;62.26;100223.25;5099602;28;20068;-60
2021/12/02 10:36:30;;;;;;;3.90;1.27;;;;;;;8.06;62.82;100220.28;5100418;28;20147;-60
2021/12/02 10:39:01;;;;;;;4.75;1.15;;;;;;;7.96;63.19;100226.13;5099111;28;20044;-60
2021/12/02 10:41:31;;;;;;;4.57;1.13;;;;;;;7.86;63.32;100220.47;5098748;28;20559;-60
2021/12/02 10:44:07;;;;;;;5.75;2.00;;;;;;;7.77;63.76;100232.47;5097847;28;20044;-60
2021/12/02 10:46:38;;;;;;;4.05;1.20;;;;;;;7.70;63.83;100229.84;5099156;28;20411;-60
2021/12/02 10:49:15;;;;;;;5.07;1.02;;;;;;;7.69;63.83;100244.25;5096923;28;20051;-60
2021/12/02 10:51:46;;;;;;;3.47;1.30;;;;;;;7.61;63.74;100244.53;5093557;28;20049;-60
2021/12/02 10:54:17;;;;;;;5.05;1.17;;;;;;;7.58;63.91;100257.50;5098865;28;20055;-60
2021/12/02 10:56:47;;;;;;;4.78;1.00;;;;;;;7.56;64.00;100244.34;5094094;28;20055;-60
2021/12/02 10:59:33;;;;;;;3.63;1.30;;;;;;;7.55;64.27;100255.28;5096224;28;20094;-61
2021/12/02 11:02:07;;;;;;;3.30;1.83;;;;;;;7.50;64.89;100254.06;5099401;28;20052;-60
2021/12/02 11:04:38;;;;;;;3.28;1.35;;;;;;;7.47;64.23;100240.31;5099077;28;20084;-61
2021/12/02 11:07:11;;;;;;;6.40;1.75;;;;;;;7.45;64.39;100245.06;5102899;28;20474;-60
2021/12/02 11:09:40;;;;;;;5.47;1.20;;;;;;;7.42;64.94;100248.97;5103485;28;20047;-60
2021/12/02 11:12:17;;;;;;;4.70;1.65;;;;;;;7.40;64.85;100253.72;5100088;28;20082;-61
2021/12/02 11:14:58;;;;;;;7.25;1.80;;;;;;;7.39;64.71;100254.75;5099775;28;20068;-61
2021/12/02 11:17:30;;;;;;;5.70;2.10;;;;;;;7.40;65.04;100253.72;5100397;28;20044;-61
2021/12/02 11:20:00;;;;;;;5.22;1.75;;;;;;;7.39;65.26;100262.78;5099131;28;20048;-60
2021/12/02 11:22:30;;;;;;;4.68;1.42;;;;;;;7.39;65.14;100265.44;5100268;28;20051;-61
2021/12/02 11:24:59;;;;;;;5.88;1.95;;;;;;;7.38;65.15;100269.16;5100566;28;20394;-60
2021/12/02 11:27:31;;;;;;;8.35;2.10;;;;;;;7.37;65.30;100264.84;5097741;28;20063;-61
2021/12/02 11:30:01;;;;;;;3.78;1.40;;;;;;;7.37;65.81;100270.19;5102255;28;20044;-60
2021/12/02 11:32:46;;;;;;;6.18;1.70;;;;;;;7.37;65.35;100259.50;5102891;28;20270;-59
2021/12/02 11:35:18;;;;;;;3.40;1.27;;;;;;;7.37;65.43;100267.50;5101443;28;20056;-58
2021/12/02 11:37:49;;;;;;;7.15;1.85;;;;;;;7.37;65.35;100267.50;5098852;28;20056;-59
2021/12/02 11:40:21;;;;;;;3.88;1.33;;;;;;;7.40;65.11;100272.44;5102986;28;20044;-59
2021/12/02 11:42:50;;;;;;;4.07;1.50;;;;;;;7.54;65.15;100267.81;5100532;28;20045;-59
2021/12/02 11:45:22;;;;;;;4.97;1.70;;;;;;;7.68;64.46;100263.19;5098875;28;20051;-59
2021/12/02 11:47:53;;;;;;;4.00;1.23;;;;;;;7.92;63.99;100273.09;5100423;28;20051;-59
2021/12/02 11:50:22;;;;;;;7.47;1.60;;;;;;;8.00;63.31;100266.66;5101890;28;20083;-59
2021/12/02 11:52:50;;;;;;;3.22;1.30;;;;;;;8.16;63.42;100266.91;5098549;28;20449;-59
2021/12/02 11:55:23;;;;;;;5.55;1.65;;;;;;;8.17;63.00;100270.41;5099472;28;20044;-59
2021/12/02 11:57:52;;;;;;;5.03;1.50;;;;;;;8.11;62.79;100274.78;5103728;28;20051;-59
2021/12/02 12:00:23;;;;;;;7.15;2.35;;;;;;;8.04;63.16;100268.66;5103386;28;20058;-59